Time;durP1;ratioP1;P1;durP2;ratioP2;P2;SDS_P1;SDS_P2;PMS_P1;PMS_P2;Temp;Humidity;BMP_temperature;BMP_pressure;BME280_temperature;BME280_humidity;BME280_pressure;Samples;Min_cycle;Max_cycle;Signal;HPM_P1;HPM_P2
2022/05/15 00:02:20;;;;;;;17.13;7.03;;;12.50;99.90;;;;;;5091585;28;20488;-63
2022/05/15 00:04:46;;;;;;;19.55;7.28;;;12.50;99.90;;;;;;5092760;28;20131;-63
2022/05/15 00:07:11;;;;;;;13.98;6.50;;;12.40;99.90;;;;;;5093062;28;20023;-63
2022/05/15 00:09:37;;;;;;;11.93;6.72;;;12.40;99.90;;;;;;5091077;28;20103;-63
2022/05/15 00:12:05;;;;;;;20.23;7.03;;;12.40;99.90;;;;;;5092425;28;20059;-61
2022/05/15 00:14:32;;;;;;;15.73;8.50;;;12.40;99.90;;;;;;5092668;28;20032;-62
2022/05/15 00:16:58;;;;;;;12.80;7.28;;;12.40;99.90;;;;;;5093746;28;20016;-63
2022/05/15 00:19:24;;;;;;;14.80;7.63;;;12.30;99.90;;;;;;5096602;28;20507;-62
2022/05/15 00:21:49;;;;;;;16.58;7.97;;;12.30;99.90;;;;;;5064964;28;20024;-62
2022/05/15 00:24:15;;;;;;;12.98;7.40;;;12.30;99.90;;;;;;5087263;28;20409;-61
2022/05/15 00:26:41;;;;;;;11.38;7.20;;;12.40;99.90;;;;;;5090775;28;20035;-63
2022/05/15 00:29:07;;;;;;;18.70;7.25;;;12.30;99.90;;;;;;5091061;28;20232;-63
2022/05/15 00:31:32;;;;;;;14.65;7.68;;;12.20;99.90;;;;;;5089249;28;20039;-62
2022/05/15 00:33:58;;;;;;;21.30;8.35;;;12.20;99.90;;;;;;5085901;28;20074;-62
2022/05/15 00:36:24;;;;;;;12.75;7.25;;;12.20;99.90;;;;;;5091844;28;20020;-62
2022/05/15 00:38:49;;;;;;;15.95;7.88;;;12.10;99.90;;;;;;5091285;28;20097;-64
2022/05/15 00:41:15;;;;;;;23.02;8.77;;;12.00;99.90;;;;;;5090130;28;20093;-62
2022/05/15 00:43:43;;;;;;;22.10;9.40;;;11.90;99.90;;;;;;5087329;28;20035;-62
2022/05/15 00:46:15;;;;;;;15.65;9.00;;;11.80;99.90;;;;;;5089633;28;20034;-62
2022/05/15 00:48:41;;;;;;;16.13;9.13;;;11.90;99.90;;;;;;5083646;28;20080;-62
2022/05/15 00:51:47;;;;;;;15.88;9.25;;;12.00;99.90;;;;;;5086932;28;20115;-63
2022/05/15 00:54:29;;;;;;;19.83;9.63;;;12.10;99.90;;;;;;5007099;28;20034;-63
2022/05/15 00:57:00;;;;;;;24.67;9.60;;;12.10;99.90;;;;;;5085995;28;20028;-62
2022/05/15 00:59:30;;;;;;;16.10;9.38;;;12.00;99.90;;;;;;5089879;28;20039;-62
2022/05/15 01:01:55;;;;;;;18.38;9.32;;;11.90;99.90;;;;;;5085196;28;20065;-63
2022/05/15 01:04:21;;;;;;;18.98;9.02;;;11.90;99.90;;;;;;5086970;28;20032;-63
2022/05/15 01:06:46;;;;;;;16.08;9.48;;;11.90;99.90;;;;;;5091954;28;20236;-63
2022/05/15 01:09:14;;;;;;;15.98;8.73;;;12.00;99.90;;;;;;5086841;28;20447;-63
2022/05/15 01:11:42;;;;;;;16.60;8.98;;;12.00;99.90;;;;;;5086019;28;20032;-61
2022/05/15 01:14:11;;;;;;;15.32;7.80;;;12.00;99.90;;;;;;5090401;28;20482;-64
2022/05/15 01:16:37;;;;;;;18.10;8.48;;;11.90;99.90;;;;;;5089691;28;20092;-63
2022/05/15 01:19:04;;;;;;;19.23;9.02;;;11.90;99.90;;;;;;5089732;28;20113;-63
2022/05/15 01:21:38;;;;;;;21.35;9.27;;;11.90;99.90;;;;;;5087127;28;20025;-63
2022/05/15 01:24:06;;;;;;;17.38;8.60;;;12.00;99.90;;;;;;5089009;28;20024;-62
2022/05/15 01:26:35;;;;;;;15.43;8.60;;;12.00;99.90;;;;;;5087580;28;20024;-64
2022/05/15 01:29:03;;;;;;;16.67;8.43;;;11.90;99.90;;;;;;5090408;28;20020;-63
2022/05/15 01:31:29;;;;;;;15.68;9.00;;;11.80;99.90;;;;;;5090618;28;20114;-62
2022/05/15 01:33:55;;;;;;;14.00;8.63;;;11.90;99.90;;;;;;5088730;28;20091;-62
2022/05/15 01:36:23;;;;;;;13.10;9.65;;;11.80;99.90;;;;;;5089876;28;20034;-61
2022/05/15 01:38:50;;;;;;;17.55;9.07;;;11.80;99.90;;;;;;5089826;28;20371;-62
2022/05/15 01:41:15;;;;;;;15.90;9.55;;;11.60;99.90;;;;;;5085893;28;20512;-62
2022/05/15 01:43:43;;;;;;;14.68;8.50;;;11.50;99.90;;;;;;5089906;28;20036;-63
2022/05/15 01:46:10;;;;;;;12.88;8.20;;;11.60;99.90;;;;;;5089403;28;20389;-63
2022/05/15 01:48:36;;;;;;;15.38;9.00;;;11.60;99.90;;;;;;5090503;28;20024;-63
2022/05/15 01:51:02;;;;;;;15.25;9.48;;;11.60;99.90;;;;;;5088218;28;20024;-63
2022/05/15 01:53:27;;;;;;;12.35;8.73;;;11.50;99.90;;;;;;5086203;28;20046;-62
2022/05/15 01:55:53;;;;;;;18.20;9.93;;;11.40;99.90;;;;;;5088428;28;20422;-63
2022/05/15 01:58:18;;;;;;;18.35;8.77;;;11.50;99.90;;;;;;5088422;28;20027;-61
2022/05/15 02:00:44;;;;;;;16.55;9.23;;;11.40;99.90;;;;;;5087116;28;20024;-62
2022/05/15 02:03:10;;;;;;;17.30;9.70;;;11.40;99.90;;;;;;5090122;28;20063;-62
2022/05/15 02:05:36;;;;;;;17.67;9.23;;;11.30;99.90;;;;;;5088676;28;20028;-62
2022/05/15 02:08:02;;;;;;;15.93;9.15;;;11.30;99.90;;;;;;5089161;28;20024;-63
2022/05/15 02:10:28;;;;;;;19.25;9.65;;;11.30;99.90;;;;;;5090316;28;20028;-63
2022/05/15 02:12:54;;;;;;;15.68;9.52;;;11.30;99.90;;;;;;5089735;28;20023;-63
2022/05/15 02:15:20;;;;;;;16.65;10.02;;;11.20;99.90;;;;;;5087054;28;20032;-63
2022/05/15 02:17:45;;;;;;;15.00;9.68;;;11.20;99.90;;;;;;5089803;28;20548;-63
2022/05/15 02:20:12;;;;;;;22.63;11.20;;;11.20;99.90;;;;;;5088001;28;20032;-64
2022/05/15 02:22:38;;;;;;;18.52;10.70;;;11.10;99.90;;;;;;5089737;28;20028;-63
2022/05/15 02:25:07;;;;;;;22.15;11.05;;;11.10;99.90;;;;;;5088278;28;20451;-64
2022/05/15 02:27:32;;;;;;;18.38;9.65;;;11.10;99.90;;;;;;5087162;28;20108;-61
2022/05/15 02:29:58;;;;;;;16.50;9.80;;;11.20;99.90;;;;;;5088154;28;20478;-63
2022/05/15 02:32:24;;;;;;;18.63;11.02;;;11.20;99.90;;;;;;5089832;28;20057;-62
2022/05/15 02:34:50;;;;;;;17.63;10.35;;;11.20;99.90;;;;;;5089241;28;20071;-64
2022/05/15 02:37:15;;;;;;;19.35;10.55;;;11.10;99.90;;;;;;5088903;28;20020;-63
2022/05/15 02:39:41;;;;;;;22.65;10.30;;;11.10;99.90;;;;;;5086690;28;20392;-63
2022/05/15 02:42:07;;;;;;;21.27;10.75;;;11.10;99.90;;;;;;5088827;28;20039;-61
2022/05/15 02:44:32;;;;;;;16.25;9.68;;;11.20;99.90;;;;;;5088290;28;20016;-63
2022/05/15 02:46:58;;;;;;;20.23;10.23;;;11.20;99.90;;;;;;5088158;28;20063;-63
2022/05/15 02:52:08;;;;;;;21.52;11.23;;;11.10;99.90;;;;;;5093759;28;20066;-63
2022/05/15 02:54:34;;;;;;;20.48;9.93;;;11.10;99.90;;;;;;5089505;28;20035;-62
2022/05/15 02:57:02;;;;;;;18.88;10.73;;;11.00;99.90;;;;;;5092994;28;20647;-61
2022/05/15 02:59:27;;;;;;;15.90;10.43;;;11.00;99.90;;;;;;5092844;28;20028;-62
2022/05/15 03:01:53;;;;;;;18.27;11.18;;;10.90;99.90;;;;;;5092707;28;20432;-61
2022/05/15 03:04:18;;;;;;;24.48;12.25;;;10.90;99.90;;;;;;5092382;28;20027;-62
2022/05/15 03:06:44;;;;;;;20.83;12.35;;;10.90;99.90;;;;;;5091762;28;20032;-63
2022/05/15 03:09:11;;;;;;;26.30;12.80;;;10.80;99.90;;;;;;5092716;28;20020;-61
2022/05/15 03:11:36;;;;;;;20.35;12.00;;;10.80;99.90;;;;;;5093305;28;20485;-63
2022/05/15 03:14:02;;;;;;;19.88;11.93;;;10.80;99.90;;;;;;5093184;28;20024;-62
2022/05/15 03:16:29;;;;;;;25.38;11.48;;;10.80;99.90;;;;;;5088409;28;20460;-62
2022/05/15 03:18:55;;;;;;;27.35;11.18;;;10.70;99.90;;;;;;5092290;28;20054;-63
2022/05/15 03:21:30;;;;;;;17.42;11.45;;;10.70;99.90;;;;;;5091373;28;20056;-62
2022/05/15 03:24:04;;;;;;;17.00;11.38;;;10.60;99.90;;;;;;5092769;28;20489;-62
2022/05/15 03:26:32;;;;;;;22.90;11.38;;;10.60;99.90;;;;;;5091431;28;20382;-62
2022/05/15 03:28:58;;;;;;;20.17;11.10;;;10.60;99.90;;;;;;5093600;28;20081;-62
2022/05/15 03:31:23;;;;;;;17.63;10.90;;;10.50;99.90;;;;;;5092011;28;20470;-62
2022/05/15 03:33:49;;;;;;;22.90;10.73;;;10.60;99.90;;;;;;5108460;22;20465;-63
2022/05/15 03:36:16;;;;;;;20.58;10.27;;;10.50;99.90;;;;;;5087954;28;20028;-63
2022/05/15 03:38:43;;;;;;;20.95;11.30;;;10.50;99.90;;;;;;5088829;28;20032;-62
2022/05/15 03:41:09;;;;;;;18.10;10.00;;;10.50;99.90;;;;;;5092430;28;20024;-62
2022/05/15 03:43:35;;;;;;;21.70;10.20;;;10.50;99.90;;;;;;5095296;28;20040;-61
2022/05/15 03:46:02;;;;;;;16.23;10.55;;;10.50;99.90;;;;;;5087321;28;20093;-60
2022/05/15 03:48:28;;;;;;;20.98;10.93;;;10.50;99.90;;;;;;5091569;28;20011;-62
2022/05/15 03:50:54;;;;;;;20.05;11.35;;;10.50;99.90;;;;;;5089873;28;20024;-62
2022/05/15 03:53:19;;;;;;;25.50;11.93;;;10.50;99.90;;;;;;5094104;28;20024;-62
2022/05/15 03:55:45;;;;;;;20.17;12.00;;;10.50;99.90;;;;;;5095945;28;20173;-62
2022/05/15 03:58:11;;;;;;;17.30;11.27;;;10.40;99.90;;;;;;5094534;28;20101;-62
2022/05/15 04:00:36;;;;;;;25.48;12.95;;;10.50;99.90;;;;;;5088061;28;20509;-62
2022/05/15 04:03:02;;;;;;;27.90;12.13;;;10.40;99.90;;;;;;5092766;28;20028;-62
2022/05/15 04:05:31;;;;;;;23.80;12.93;;;10.40;99.90;;;;;;5092032;28;20031;-61
2022/05/15 04:07:57;;;;;;;23.10;12.20;;;10.30;99.90;;;;;;5093765;28;20019;-62
2022/05/15 04:10:23;;;;;;;21.88;10.98;;;10.30;99.90;;;;;;5090007;28;20024;-62
2022/05/15 04:12:49;;;;;;;24.83;13.40;;;10.30;99.90;;;;;;5092357;28;20064;-62
2022/05/15 04:15:15;;;;;;;23.95;12.13;;;10.40;99.90;;;;;;5091833;28;20499;-62
2022/05/15 04:17:42;;;;;;;27.55;12.90;;;10.40;99.90;;;;;;5092474;28;20497;-62
2022/05/15 04:20:08;;;;;;;24.52;11.85;;;10.40;99.90;;;;;;5089592;28;20020;-62
2022/05/15 04:22:34;;;;;;;21.10;12.77;;;10.40;99.90;;;;;;5090358;28;20036;-62
2022/05/15 04:24:59;;;;;;;23.08;12.35;;;10.40;99.90;;;;;;5089575;28;20102;-62
2022/05/15 04:27:25;;;;;;;22.50;11.55;;;10.50;99.90;;;;;;5091786;28;20028;-62
2022/05/15 04:29:52;;;;;;;23.13;12.40;;;10.50;99.90;;;;;;5093406;28;20484;-63
2022/05/15 04:32:18;;;;;;;23.40;12.32;;;10.50;99.90;;;;;;5089109;28;20020;-59
2022/05/15 04:34:43;;;;;;;17.25;11.05;;;10.60;99.90;;;;;;5089769;28;20073;-60
2022/05/15 04:37:09;;;;;;;16.77;11.65;;;10.60;99.90;;;;;;5090835;28;20031;-62
2022/05/15 04:39:34;;;;;;;27.92;12.00;;;10.80;99.90;;;;;;5090273;28;20024;-62
2022/05/15 04:42:00;;;;;;;25.20;11.52;;;10.80;99.90;;;;;;5089308;28;20067;-63
2022/05/15 04:44:26;;;;;;;17.52;12.00;;;10.80;99.90;;;;;;5091270;28;20078;-62
2022/05/15 04:46:52;;;;;;;24.60;13.57;;;10.90;99.90;;;;;;5088421;28;20040;-62
2022/05/15 04:49:17;;;;;;;24.17;13.60;;;10.90;99.90;;;;;;5089813;28;20032;-62
2022/05/15 04:51:43;;;;;;;19.90;12.13;;;11.00;99.90;;;;;;5090537;28;20024;-62
2022/05/15 04:54:09;;;;;;;22.10;12.75;;;11.00;99.90;;;;;;5095425;28;20058;-63
2022/05/15 04:56:34;;;;;;;18.83;10.85;;;11.00;99.90;;;;;;5090555;28;20036;-62
2022/05/15 04:59:01;;;;;;;23.77;11.65;;;11.10;99.90;;;;;;5091782;28;20047;-62
2022/05/15 05:01:27;;;;;;;20.50;11.60;;;11.20;99.90;;;;;;5090209;28;20027;-62
2022/05/15 05:03:57;;;;;;;23.17;11.25;;;11.30;99.90;;;;;;5095237;28;20035;-62
2022/05/15 05:06:24;;;;;;;19.92;12.32;;;11.30;99.90;;;;;;5092946;28;20142;-62
2022/05/15 05:08:50;;;;;;;20.33;10.48;;;11.40;99.90;;;;;;5089793;28;20031;-62
2022/05/15 05:11:16;;;;;;;19.45;10.40;;;11.50;99.90;;;;;;5087984;28;20024;-61
2022/05/15 05:13:42;;;;;;;18.33;11.48;;;11.60;99.90;;;;;;5087509;28;20035;-62
2022/05/15 05:16:07;;;;;;;19.98;12.18;;;11.60;99.90;;;;;;5086368;28;20436;-61
2022/05/15 05:18:33;;;;;;;19.77;11.55;;;11.70;99.90;;;;;;5090453;28;20031;-64
2022/05/15 05:20:58;;;;;;;17.77;11.65;;;11.80;99.90;;;;;;5088970;28;20845;-61
2022/05/15 05:23:24;;;;;;;17.60;11.63;;;11.80;99.90;;;;;;5090550;28;20024;-63
2022/05/15 05:25:49;;;;;;;19.98;11.63;;;11.90;99.90;;;;;;5085092;28;20024;-62
2022/05/15 05:28:15;;;;;;;20.60;10.48;;;11.90;99.90;;;;;;5097394;28;20543;-62
2022/05/15 05:30:41;;;;;;;17.92;12.02;;;12.00;99.90;;;;;;5083792;28;20032;-62
2022/05/15 05:33:07;;;;;;;17.50;10.95;;;12.10;99.90;;;;;;5071587;28;20024;-62
2022/05/15 05:35:35;;;;;;;17.95;11.10;;;12.20;99.90;;;;;;5089732;28;20034;-63
2022/05/15 05:38:00;;;;;;;30.80;13.07;;;12.30;99.90;;;;;;5088444;28;20443;-62
2022/05/15 05:40:26;;;;;;;25.60;11.82;;;12.40;99.90;;;;;;5089768;28;20035;-62
2022/05/15 05:42:51;;;;;;;21.52;11.50;;;12.60;99.90;;;;;;5090739;28;20044;-63
2022/05/15 05:45:17;;;;;;;16.58;10.52;;;12.70;99.90;;;;;;5088719;28;20031;-61
2022/05/15 05:47:48;;;;;;;24.27;10.98;;;12.70;99.90;;;;;;5093815;28;20038;-61
2022/05/15 05:50:15;;;;;;;26.75;11.40;;;12.80;99.90;;;;;;5086622;28;20115;-61
2022/05/15 05:52:41;;;;;;;21.83;10.05;;;12.90;99.90;;;;;;5090410;28;20032;-61
2022/05/15 05:55:10;;;;;;;20.65;10.88;;;13.00;99.90;;;;;;5088971;28;20036;-60
2022/05/15 05:57:36;;;;;;;17.10;9.85;;;13.10;99.90;;;;;;5089944;28;20030;-61
2022/05/15 06:00:04;;;;;;;18.85;10.43;;;13.20;99.90;;;;;;5090265;28;20029;-61
2022/05/15 06:02:30;;;;;;;15.05;9.85;;;13.40;99.90;;;;;;5089883;28;20111;-61
2022/05/15 06:04:55;;;;;;;17.35;9.48;;;13.50;99.90;;;;;;5089677;28;20112;-61
2022/05/15 06:07:25;;;;;;;14.43;8.57;;;13.60;99.90;;;;;;5089466;28;20363;-61
2022/05/15 06:09:51;;;;;;;15.70;8.63;;;13.70;99.90;;;;;;5089337;28;20381;-61
2022/05/15 06:12:19;;;;;;;16.33;9.13;;;13.80;99.90;;;;;;5089730;28;20035;-60
2022/05/15 06:14:45;;;;;;;17.52;8.85;;;13.90;99.90;;;;;;5087879;28;20038;-61
2022/05/15 06:17:11;;;;;;;16.52;8.18;;;14.00;99.90;;;;;;5084474;28;20028;-61
2022/05/15 06:19:37;;;;;;;15.20;9.13;;;14.10;99.90;;;;;;5085165;28;20486;-61
2022/05/15 06:22:03;;;;;;;19.08;8.88;;;14.30;99.90;;;;;;5083875;28;20027;-59
2022/05/15 06:24:29;;;;;;;14.13;8.15;;;14.30;99.90;;;;;;5080523;28;20599;-61
2022/05/15 06:26:58;;;;;;;12.20;7.47;;;14.40;99.90;;;;;;5081915;28;20033;-60
2022/05/15 06:29:24;;;;;;;12.55;7.35;;;14.40;99.90;;;;;;5083618;28;20024;-60
2022/05/15 06:31:50;;;;;;;12.50;6.72;;;14.50;99.90;;;;;;5081462;28;20028;-61
2022/05/15 06:34:16;;;;;;;9.38;6.47;;;14.60;99.90;;;;;;5082313;28;20117;-60
2022/05/15 06:36:42;;;;;;;11.48;6.03;;;14.70;99.90;;;;;;5081190;28;20101;-61
2022/05/15 06:39:07;;;;;;;16.58;5.85;;;14.80;99.90;;;;;;5081068;28;20032;-61
2022/05/15 06:41:33;;;;;;;10.60;5.10;;;15.00;99.90;;;;;;5080656;28;20036;-62
2022/05/15 06:44:00;;;;;;;13.38;4.72;;;15.10;99.90;;;;;;5079724;28;20036;-61
2022/05/15 06:46:26;;;;;;;13.95;5.07;;;15.20;99.90;;;;;;5083116;28;20059;-61
2022/05/15 06:48:52;;;;;;;11.55;5.00;;;15.20;99.90;;;;;;5086920;28;20024;-60
2022/05/15 06:51:18;;;;;;;17.73;4.70;;;15.30;99.90;;;;;;5071053;28;20106;-60
2022/05/15 06:53:44;;;;;;;12.18;5.30;;;15.30;99.90;;;;;;5098111;28;20028;-60
2022/05/15 06:58:54;;;;;;;8.77;4.90;;;15.50;99.90;;;;;;5088171;28;20116;-61
2022/05/15 07:01:20;;;;;;;7.60;4.13;;;15.50;99.90;;;;;;5087967;28;20478;-59
2022/05/15 07:03:45;;;;;;;11.70;5.53;;;15.60;99.90;;;;;;5088934;28;20488;-60
2022/05/15 07:06:11;;;;;;;13.52;4.43;;;15.70;99.90;;;;;;5088836;28;20036;-61
2022/05/15 07:08:37;;;;;;;11.38;5.13;;;15.70;99.90;;;;;;5093344;28;20039;-60
2022/05/15 07:11:03;;;;;;;10.23;4.82;;;15.90;99.90;;;;;;5088949;28;20028;-60
2022/05/15 07:13:29;;;;;;;19.40;4.60;;;16.00;99.90;;;;;;5089053;28;20105;-60
2022/05/15 07:15:55;;;;;;;12.20;4.50;;;16.00;99.90;;;;;;5087321;28;20051;-60
2022/05/15 07:18:23;;;;;;;10.23;4.78;;;16.10;99.90;;;;;;5088183;28;20508;-60
2022/05/15 07:20:52;;;;;;;7.85;4.65;;;16.20;99.90;;;;;;5089168;28;20492;-60
2022/05/15 07:23:21;;;;;;;7.95;4.70;;;16.20;99.90;;;;;;5088592;28;20501;-60
2022/05/15 07:25:49;;;;;;;13.73;4.57;;;16.30;99.90;;;;;;5086069;28;20028;-58
2022/05/15 07:28:15;;;;;;;9.93;3.88;;;16.40;99.90;;;;;;5087637;28;20093;-60
2022/05/15 07:30:40;;;;;;;11.85;3.78;;;16.50;99.90;;;;;;5088251;28;20062;-60
2022/05/15 07:33:06;;;;;;;9.73;4.30;;;16.80;99.90;;;;;;5087614;28;20031;-61
2022/05/15 07:35:32;;;;;;;7.32;4.30;;;17.00;99.90;;;;;;5092051;28;20027;-60
2022/05/15 07:37:58;;;;;;;13.43;4.18;;;17.00;99.90;;;;;;5092623;28;20078;-59
2022/05/15 07:40:23;;;;;;;6.53;4.22;;;17.10;99.90;;;;;;5083158;28;20081;-62
2022/05/15 07:42:49;;;;;;;8.48;3.88;;;17.20;99.90;;;;;;5088781;28;20087;-59
2022/05/15 07:45:15;;;;;;;9.68;3.78;;;17.30;99.90;;;;;;5089625;28;20036;-61
2022/05/15 07:47:42;;;;;;;6.88;3.80;;;17.40;99.90;;;;;;5094039;28;20073;-60
2022/05/15 07:50:08;;;;;;;15.85;4.72;;;17.40;99.90;;;;;;5089872;28;20435;-60
2022/05/15 07:52:34;;;;;;;11.55;4.15;;;17.60;99.90;;;;;;5093234;28;20401;-60
2022/05/15 07:55:00;;;;;;;8.70;4.10;;;17.70;99.90;;;;;;5089826;28;20817;-58
2022/05/15 07:57:26;;;;;;;18.52;4.13;;;17.80;99.90;;;;;;5098266;28;20107;-59
2022/05/15 07:59:52;;;;;;;11.70;3.85;;;17.90;99.90;;;;;;5091043;28;20019;-59
2022/05/15 08:02:18;;;;;;;11.10;3.97;;;18.00;99.90;;;;;;5095436;28;20032;-58
2022/05/15 08:08:00;;;;;;;9.10;3.97;;;18.20;99.90;;;;;;4987416;28;20041;-59
2022/05/15 08:10:28;;;;;;;7.65;3.97;;;18.40;99.90;;;;;;4986978;28;20042;-59
2022/05/15 08:12:53;;;;;;;10.35;4.18;;;18.50;99.90;;;;;;5045996;28;20032;-60
2022/05/15 08:15:19;;;;;;;8.77;3.90;;;18.60;99.90;;;;;;5097102;28;20039;-58
2022/05/15 08:17:44;;;;;;;11.65;3.60;;;18.80;99.90;;;;;;5091648;28;20024;-61
2022/05/15 08:25:40;;;;;;;10.38;3.35;;;19.20;99.90;;;;;;5085665;28;20102;-58
2022/05/15 08:28:06;;;;;;;8.80;3.22;;;19.30;99.90;;;;;;5092292;28;20482;-60
2022/05/15 08:30:33;;;;;;;9.40;3.17;;;19.50;99.90;;;;;;5092753;28;20028;-60
2022/05/15 08:32:58;;;;;;;10.18;3.03;;;19.50;99.90;;;;;;5085957;28;20521;-60
2022/05/15 08:35:24;;;;;;;9.63;2.95;;;19.70;99.90;;;;;;5081540;28;20051;-58
2022/05/15 08:37:50;;;;;;;9.57;3.33;;;19.70;99.90;;;;;;5082502;28;20100;-60
2022/05/15 08:40:19;;;;;;;7.63;2.40;;;19.70;99.90;;;;;;5083094;28;20024;-60
2022/05/15 08:42:56;;;;;;;6.45;2.60;;;19.90;99.90;;;;;;5088137;28;20028;-58
2022/05/15 08:45:26;;;;;;;8.68;2.63;;;20.00;99.90;;;;;;5090756;28;20337;-59
2022/05/15 08:48:02;;;;;;;7.35;2.95;;;20.10;99.90;;;;;;5087420;28;20477;-58
2022/05/15 08:50:32;;;;;;;8.00;3.47;;;20.20;99.90;;;;;;5092823;28;20024;-60
2022/05/15 08:53:01;;;;;;;7.25;2.80;;;20.30;99.90;;;;;;5081116;28;20063;-59
2022/05/15 08:55:38;;;;;;;7.38;2.83;;;20.40;99.90;;;;;;5078182;28;20469;-60
2022/05/15 08:58:12;;;;;;;11.15;3.38;;;20.60;99.90;;;;;;5078883;28;20288;-60
2022/05/15 09:00:51;;;;;;;8.52;3.08;;;20.70;99.90;;;;;;5085877;28;20032;-59
2022/05/15 09:03:23;;;;;;;11.00;2.53;;;20.70;99.90;;;;;;5094394;28;20043;-61
2022/05/15 09:06:12;;;;;;;8.77;2.90;;;20.90;99.90;;;;;;5089007;28;20031;-57
2022/05/15 09:09:10;;;;;;;5.60;2.85;;;21.00;99.90;;;;;;5089824;28;20663;-60
2022/05/15 09:11:47;;;;;;;5.38;2.65;;;21.10;99.90;;;;;;5089834;28;20028;-60
2022/05/15 09:14:53;;;;;;;5.65;2.72;;;21.10;99.90;;;;;;5088566;28;20027;-58
2022/05/15 09:17:42;;;;;;;5.78;2.50;;;21.20;99.90;;;;;;5082394;28;20042;-60
2022/05/15 09:20:15;;;;;;;7.05;2.40;;;21.30;99.90;;;;;;5093896;28;20031;-61
2022/05/15 09:22:47;;;;;;;5.57;2.42;;;21.50;99.90;;;;;;5093384;28;20028;-59
2022/05/15 09:25:17;;;;;;;9.45;2.75;;;21.60;99.90;;;;;;5088861;28;20028;-56
2022/05/15 09:28:12;;;;;;;6.55;2.70;;;21.80;99.90;;;;;;5091707;28;20032;-61
2022/05/15 09:30:47;;;;;;;9.55;2.75;;;22.00;99.90;;;;;;5088608;28;20024;-59
2022/05/15 09:33:38;;;;;;;5.18;2.83;;;22.10;99.90;;;;;;5086291;28;20024;-59
2022/05/15 09:36:26;;;;;;;6.80;2.67;;;22.20;99.90;;;;;;5080687;28;20055;-57
2022/05/15 09:39:20;;;;;;;3.22;2.05;;;22.30;99.90;;;;;;5093427;28;20020;-59
2022/05/15 09:45:20;;;;;;;8.45;2.53;;;22.70;99.90;;;;;;5085167;28;20039;-59
2022/05/15 09:47:51;;;;;;;6.95;2.67;;;22.90;99.90;;;;;;5088627;28;20081;-59
2022/05/15 09:50:57;;;;;;;7.35;2.10;;;23.10;99.90;;;;;;5086900;28;20024;-60
2022/05/15 09:53:42;;;;;;;13.15;2.92;;;23.20;99.90;;;;;;5025137;28;20017;-60
2022/05/15 09:56:32;;;;;;;6.65;1.98;;;23.40;99.90;;;;;;5025533;28;20122;-58
2022/05/15 09:59:08;;;;;;;7.22;3.08;;;23.50;99.90;;;;;;5061751;28;20056;-58
2022/05/15 10:01:47;;;;;;;6.00;2.13;;;23.50;99.90;;;;;;5089064;28;20116;-57
2022/05/15 10:04:28;;;;;;;5.88;2.03;;;23.90;99.90;;;;;;5088864;28;20030;-58
2022/05/15 10:06:59;;;;;;;7.18;1.83;;;23.90;99.90;;;;;;5091554;28;20024;-57
2022/05/15 10:09:31;;;;;;;8.73;2.22;;;24.00;99.90;;;;;;5082060;28;20027;-54
2022/05/15 10:12:06;;;;;;;4.13;2.08;;;24.00;99.90;;;;;;5085000;28;20397;-57
2022/05/15 10:14:42;;;;;;;6.47;2.67;;;24.10;99.90;;;;;;5088817;28;20093;-58
2022/05/15 10:17:10;;;;;;;6.18;1.98;;;24.40;99.90;;;;;;5087907;28;20093;-53
2022/05/15 10:19:54;;;;;;;3.00;1.80;;;24.60;99.90;;;;;;5070080;28;20032;-57
2022/05/15 10:22:41;;;;;;;6.05;1.48;;;24.90;99.90;;;;;;5086581;28;20028;-58
2022/05/15 10:25:36;;;;;;;4.10;2.10;;;25.10;99.90;;;;;;5081595;28;20287;-60
2022/05/15 10:28:16;;;;;;;4.72;1.92;;;25.40;99.90;;;;;;5086793;28;20409;-59
2022/05/15 10:31:01;;;;;;;9.18;2.00;;;25.50;99.90;;;;;;5086455;28;20095;-56
2022/05/15 10:33:31;;;;;;;9.45;3.75;;;25.70;99.90;;;;;;5089552;28;20177;-59
2022/05/15 10:36:06;;;;;;;6.93;1.92;;;25.80;99.90;;;;;;5087395;28;20024;-60
2022/05/15 10:39:16;;;;;;;6.18;1.77;;;25.90;99.90;;;;;;5087005;28;20028;-60
2022/05/15 10:42:10;;;;;;;6.25;2.10;;;26.00;99.90;;;;;;5088079;28;20038;-59
2022/05/15 10:44:42;;;;;;;7.32;2.45;;;25.90;98.50;;;;;;5086734;28;20031;-60
2022/05/15 10:47:44;;;;;;;5.82;1.50;;;25.90;99.90;;;;;;5087416;28;20165;-55
2022/05/15 10:50:23;;;;;;;5.82;1.73;;;25.70;98.40;;;;;;5073474;28;20020;-60
2022/05/15 10:57:21;;;;;;;8.95;1.92;;;25.70;99.90;;;;;;5090197;28;20038;-59
2022/05/15 10:58:54;;;;;;;6.85;1.58;;;26.10;99.90;;;;;;5090482;28;20035;-58
2022/05/15 11:01:36;;;;;;;10.90;1.88;;;26.50;99.30;;;;;;5090238;28;20020;-59
2022/05/15 11:04:36;;;;;;;3.42;1.38;;;26.60;97.10;;;;;;5083637;28;20028;-58
2022/05/15 11:07:29;;;;;;;3.72;1.77;;;27.00;93.90;;;;;;5075854;28;20051;-60
2022/05/15 11:10:18;;;;;;;8.70;1.45;;;26.70;96.50;;;;;;5087789;28;20040;-58
2022/05/15 11:12:48;;;;;;;5.68;1.52;;;26.60;98.40;;;;;;5094265;28;20024;-59
2022/05/15 11:15:24;;;;;;;7.93;1.92;;;26.90;95.00;;;;;;5091507;28;20398;-59
2022/05/15 11:18:22;;;;;;;5.55;2.05;;;27.20;97.60;;;;;;5095122;28;20500;-58
2022/05/15 11:21:01;;;;;;;3.47;1.88;;;27.20;95.80;;;;;;5091122;28;20481;-58
2022/05/15 11:23:53;;;;;;;5.93;2.03;;;27.30;93.60;;;;;;5091736;28;20405;-61
2022/05/15 11:26:25;;;;;;;10.30;2.75;;;27.20;92.50;;;;;;5079991;28;20028;-57
2022/05/15 11:28:59;;;;;;;4.40;1.73;;;27.50;92.80;;;;;;5093677;28;20027;-57
2022/05/15 11:31:35;;;;;;;1.92;1.50;;;27.90;93.30;;;;;;5093732;28;20094;-59
2022/05/15 11:34:09;;;;;;;20.23;1.90;;;28.20;92.90;;;;;;5092324;28;20028;-59
2022/05/15 11:36:39;;;;;;;1.65;0.95;;;27.70;91.20;;;;;;5092766;28;20039;-58
2022/05/15 11:39:26;;;;;;;6.15;1.52;;;27.60;92.30;;;;;;5095949;28;20953;-58
2022/05/15 11:42:10;;;;;;;1.67;1.38;;;27.60;92.00;;;;;;5092041;28;20501;-57
2022/05/15 11:44:38;;;;;;;4.47;1.27;;;27.30;87.50;;;;;;5090047;28;20113;-58
2022/05/15 11:47:33;;;;;;;4.22;1.20;;;27.50;90.30;;;;;;5093025;28;20289;-58
2022/05/15 11:50:09;;;;;;;7.22;1.30;;;28.00;85.40;;;;;;5092876;28;20036;-55
2022/05/15 11:52:42;;;;;;;3.92;1.90;;;28.10;85.80;;;;;;5094544;28;20500;-59
2022/05/15 11:55:36;;;;;;;2.05;1.10;;;28.00;91.70;;;;;;5096420;28;20100;-59
2022/05/15 11:58:30;;;;;;;4.43;1.30;;;28.30;80.90;;;;;;5088122;28;20020;-54
2022/05/15 12:01:39;;;;;;;3.65;1.25;;;28.20;85.60;;;;;;5087874;28;20045;-60
2022/05/15 12:04:33;;;;;;;1.50;1.20;;;28.20;88.70;;;;;;5090871;28;20032;-59
2022/05/15 12:06:59;;;;;;;2.92;1.23;;;28.70;88.60;;;;;;5063680;28;20066;-58
2022/05/15 12:09:36;;;;;;;5.68;1.40;;;28.60;88.50;;;;;;5094294;28;20485;-58
2022/05/15 12:12:21;;;;;;;1.92;1.38;;;28.60;80.70;;;;;;5084950;28;20040;-54
2022/05/15 12:15:05;;;;;;;;;;;28.80;80.40;;;;;;5090421;28;20024;-59
2022/05/15 12:17:34;;;;;;;3.20;1.65;;;28.80;82.30;;;;;;5089314;28;19907;-57
2022/05/15 12:20:19;;;;;;;6.32;1.45;;;28.40;79.80;;;;;;5091335;28;20367;-59
2022/05/15 12:22:56;;;;;;;5.07;1.48;;;28.30;87.10;;;;;;5092947;28;20149;-57
2022/05/15 12:25:26;;;;;;;9.88;1.65;;;28.20;88.40;;;;;;5087089;28;20038;-58
2022/05/15 12:28:52;;;;;;;7.32;1.77;;;28.30;85.60;;;;;;5090614;28;20366;-59
2022/05/15 12:31:33;;;;;;;6.57;1.30;;;28.30;88.90;;;;;;5089214;28;20560;-57
2022/05/15 12:34:12;;;;;;;15.10;2.80;;;28.60;86.40;;;;;;5086449;28;20036;-59
2022/05/15 12:36:41;;;;;;;2.95;1.10;;;28.90;88.00;;;;;;5086558;28;20028;-59
2022/05/15 12:39:13;;;;;;;8.15;1.25;;;28.80;80.20;;;;;;5095322;28;20022;-60
2022/05/15 12:41:43;;;;;;;4.43;1.33;;;28.90;76.90;;;;;;5086046;28;20581;-58
2022/05/15 12:44:11;;;;;;;4.95;1.70;;;29.00;74.70;;;;;;5089893;28;20020;-57
2022/05/15 12:46:41;;;;;;;6.15;1.60;;;29.20;77.60;;;;;;5083994;28;20031;-58
2022/05/15 12:49:08;;;;;;;8.35;3.38;;;28.70;75.50;;;;;;5092527;28;20074;-57
2022/05/15 12:51:37;;;;;;;3.97;1.63;;;28.70;80.50;;;;;;5088182;28;20069;-59
2022/05/15 12:54:20;;;;;;;4.50;1.38;;;28.70;76.70;;;;;;5084568;28;20078;-59
2022/05/15 12:56:56;;;;;;;3.42;1.42;;;28.70;79.30;;;;;;5088468;28;20068;-60
2022/05/15 12:59:24;;;;;;;1.67;1.20;;;28.40;80.80;;;;;;5086401;28;20075;-60
2022/05/15 13:01:49;;;;;;;2.50;1.17;;;28.50;80.70;;;;;;5085287;28;20501;-58
2022/05/15 13:04:18;;;;;;;3.33;1.67;;;28.90;76.10;;;;;;5090133;28;20094;-60
2022/05/15 13:06:50;;;;;;;6.07;1.20;;;29.40;73.70;;;;;;5093201;28;20027;-57
2022/05/15 13:09:26;;;;;;;3.05;1.60;;;29.70;74.20;;;;;;5087365;28;20036;-59
2022/05/15 13:11:57;;;;;;;2.17;1.17;;;29.80;74.70;;;;;;5088906;28;20517;-58
2022/05/15 13:14:33;;;;;;;4.50;1.20;;;30.00;75.00;;;;;;5089601;28;20032;-57
2022/05/15 13:16:59;;;;;;;3.92;1.25;;;29.70;76.70;;;;;;5089261;28;20362;-60
2022/05/15 13:19:37;;;;;;;3.88;1.45;;;29.60;75.80;;;;;;5093745;28;20028;-57